createdAt,value
2019-03-03T00:01:05.526Z,100716.88
2019-03-03T00:03:35.958Z,100718.20
2019-03-03T00:06:06.506Z,100722.06
2019-03-03T00:08:38.432Z,100722.84
2019-03-03T00:11:09.072Z,100710.40
2019-03-03T00:13:39.469Z,100710.06
2019-03-03T00:16:12.165Z,100707.02
2019-03-03T00:18:42.835Z,100709.50
2019-03-03T00:21:15.003Z,100715.13
2019-03-03T00:23:45.605Z,100718.59
2019-03-03T00:26:17.605Z,100713.92
2019-03-03T00:28:48.195Z,100714.34
2019-03-03T00:31:26.608Z,100710.58
2019-03-03T00:33:56.961Z,100709.80
2019-03-03T00:36:47.769Z,100706.84
2019-03-03T00:39:37.336Z,100711.73
2019-03-03T00:42:21.998Z,100714.22
2019-03-03T00:45:06.896Z,100705.21
2019-03-03T00:47:49.685Z,100702.63
2019-03-03T00:50:25.546Z,100704.73
2019-03-03T00:53:21.463Z,100707.00
2019-03-03T00:56:03.675Z,100703.53
2019-03-03T00:58:53.157Z,100703.11
2019-03-03T01:01:47.856Z,100703.45
2019-03-03T01:04:28.094Z,100689.09
2019-03-03T01:07:32.749Z,100702.25
2019-03-03T01:10:25.282Z,100701.73
2019-03-03T01:13:00.836Z,100706.06
2019-03-03T01:15:39.360Z,100706.03
2019-03-03T01:18:28.738Z,100706.84
2019-03-03T01:21:19.436Z,100708.52
2019-03-03T01:24:06.237Z,100705.55
2019-03-03T01:26:36.800Z,100706.80
2019-03-03T01:29:07.256Z,100703.31
2019-03-03T01:31:37.717Z,100700.28
2019-03-03T01:34:08.507Z,100697.36
2019-03-03T01:36:39.068Z,100698.22
2019-03-03T01:39:09.815Z,100697.53
2019-03-03T01:41:40.872Z,100702.72
2019-03-03T01:44:11.398Z,100695.16
2019-03-03T01:46:42.153Z,100698.95
2019-03-03T01:49:12.890Z,100701.60
2019-03-03T01:51:43.482Z,100705.93
2019-03-03T01:54:14.081Z,100708.42
2019-03-03T01:56:44.693Z,100711.81
2019-03-03T01:59:15.234Z,100715.36
2019-03-03T02:01:45.926Z,100715.48
2019-03-03T02:04:17.488Z,100712.48
2019-03-03T02:06:48.243Z,100714.67
2019-03-03T02:09:18.736Z,100719.77
2019-03-03T02:11:49.455Z,100719.65
2019-03-03T02:14:20.022Z,100722.34
2019-03-03T02:16:50.575Z,100725.39
2019-03-03T02:19:21.355Z,100726.16
2019-03-03T02:21:51.887Z,100728.97
2019-03-03T02:24:22.425Z,100726.86
2019-03-03T02:26:53.579Z,100729.34
2019-03-03T02:29:24.008Z,100730.59
2019-03-03T02:31:54.620Z,100731.84
2019-03-03T02:34:25.278Z,100740.72
2019-03-03T02:36:55.710Z,100743.77
2019-03-03T02:39:26.306Z,100743.85
2019-03-03T02:41:56.841Z,100739.09
2019-03-03T02:44:28.521Z,100747.16
2019-03-03T02:46:59.253Z,100748.91
2019-03-03T02:49:32.332Z,100753.23
2019-03-03T02:52:02.982Z,100763.02
2019-03-03T02:54:33.417Z,100763.53
2019-03-03T02:57:03.975Z,100771.73
2019-03-03T02:59:35.580Z,100747.56
2019-03-03T03:02:13.601Z,100773.23
2019-03-03T03:04:44.168Z,100779.23
2019-03-03T03:07:22.622Z,100770.62
2019-03-03T03:10:09.642Z,100766.25
2019-03-03T03:12:59.238Z,100776.97
2019-03-03T03:15:57.500Z,100780.45
2019-03-03T03:18:53.006Z,100774.48
2019-03-03T03:21:37.495Z,100774.09
2019-03-03T03:24:16.931Z,100771.21
2019-03-03T03:27:15.716Z,100777.73
2019-03-03T03:30:05.207Z,100764.09
2019-03-03T03:32:44.426Z,100767.05
2019-03-03T03:35:32.863Z,100756.36
2019-03-03T03:38:33.886Z,100753.97
2019-03-03T03:41:10.187Z,100757.88
2019-03-03T03:44:04.444Z,100762.05
2019-03-03T03:46:49.326Z,100767.53
2019-03-03T03:49:57.658Z,100779.89
2019-03-03T03:52:49.868Z,100783.59
2019-03-03T03:55:37.825Z,100785.22
2019-03-03T03:58:31.516Z,100788.23
2019-03-03T04:01:19.855Z,100782.64
2019-03-03T04:04:09.419Z,100789.52
2019-03-03T04:07:07.800Z,100802.34
2019-03-03T04:09:48.389Z,100806.64
2019-03-03T04:12:36.621Z,100809.72
2019-03-03T04:15:19.438Z,100806.25
2019-03-03T04:17:55.619Z,100808.14
2019-03-03T04:20:51.336Z,100817.23
2019-03-03T04:24:00.376Z,100826.20
2019-03-03T04:26:41.784Z,100818.13
2019-03-03T04:29:29.468Z,100814.36
2019-03-03T04:32:11.159Z,100813.93
2019-03-03T04:35:00.766Z,100819.36
2019-03-03T04:37:49.324Z,100814.77
2019-03-03T04:40:40.040Z,100807.94
2019-03-03T04:43:32.559Z,100810.59
2019-03-03T04:46:31.065Z,100818.62
2019-03-03T04:49:20.620Z,100819.83
2019-03-03T04:52:06.496Z,100831.92
2019-03-03T04:54:59.429Z,100824.05
2019-03-03T04:57:49.443Z,100828.25
2019-03-03T05:00:34.918Z,100825.98
2019-03-03T05:03:20.295Z,100825.35
2019-03-03T05:06:15.945Z,100823.25
2019-03-03T05:08:51.676Z,100821.62
2019-03-03T05:12:17.333Z,100821.87
2019-03-03T05:14:49.649Z,100825.38
2019-03-03T05:17:30.556Z,100830.84
2019-03-03T05:20:02.035Z,100835.80
2019-03-03T05:22:32.666Z,100833.84
2019-03-03T05:25:04.504Z,100842.27
2019-03-03T05:27:34.983Z,100842.09
2019-03-03T05:30:05.611Z,100844.84
2019-03-03T05:32:36.413Z,100849.37
2019-03-03T05:35:07.276Z,100841.06
2019-03-03T05:37:37.755Z,100838.05
2019-03-03T05:40:08.938Z,100840.39
2019-03-03T05:42:39.467Z,100832.80
2019-03-03T05:45:10.132Z,100834.55
2019-03-03T05:47:41.367Z,100837.94
2019-03-03T05:50:11.966Z,100843.23
2019-03-03T05:52:42.576Z,100848.50
2019-03-03T05:55:13.179Z,100849.97
2019-03-03T05:57:43.687Z,100856.20
2019-03-03T06:00:14.575Z,100851.89
2019-03-03T06:02:45.223Z,100849.47
2019-03-03T06:05:15.892Z,100851.36
2019-03-03T06:07:46.698Z,100849.20
2019-03-03T06:10:18.242Z,100856.03
2019-03-03T06:12:49.700Z,100855.08
2019-03-03T06:15:20.598Z,100858.02
2019-03-03T06:17:51.337Z,100850.31
2019-03-03T06:20:22.020Z,100852.33
2019-03-03T06:22:52.563Z,100852.50
2019-03-03T06:25:24.004Z,100855.14
2019-03-03T06:27:54.491Z,100862.78
2019-03-03T06:30:25.158Z,100850.97
2019-03-03T06:32:55.694Z,100850.97
2019-03-03T06:35:26.256Z,100865.41
2019-03-03T06:37:56.853Z,100862.39
2019-03-03T06:40:27.581Z,100867.13
2019-03-03T06:42:58.240Z,100865.72
2019-03-03T06:45:29.075Z,100874.80
2019-03-03T06:48:02.274Z,100868.89
2019-03-03T06:50:33.790Z,100868.89
2019-03-03T06:53:05.686Z,100860.66
2019-03-03T06:55:36.288Z,100860.66
2019-03-03T06:58:07.376Z,100888.43
2019-03-03T07:00:38.156Z,100886.69
2019-03-03T07:03:08.702Z,100885.25
2019-03-03T07:05:40.818Z,100881.20
2019-03-03T07:08:13.843Z,100880.87
2019-03-03T07:10:44.693Z,100888.52
2019-03-03T07:13:15.692Z,100894.01
2019-03-03T07:15:46.578Z,100889.03
2019-03-03T07:18:17.053Z,100893.17
2019-03-03T07:20:47.526Z,100889.48
2019-03-03T07:23:18.228Z,100899.62
2019-03-03T07:25:50.642Z,100896.69
2019-03-03T07:28:24.088Z,100906.08
2019-03-03T07:30:55.017Z,100909.08
2019-03-03T07:33:29.361Z,100908.67
2019-03-03T07:35:59.896Z,100900.71
2019-03-03T07:38:30.426Z,100906.55
2019-03-03T07:41:00.763Z,100898.42
2019-03-03T07:43:31.473Z,100903.17
2019-03-03T07:46:02.216Z,100898.70
2019-03-03T07:48:32.841Z,100897.56
2019-03-03T07:51:03.537Z,100898.41
2019-03-03T07:53:34.146Z,100904.69
2019-03-03T07:56:04.969Z,100900.72
2019-03-03T07:58:35.488Z,100900.42
2019-03-03T08:01:05.980Z,100898.03
2019-03-03T08:03:36.758Z,100896.58
2019-03-03T08:06:07.215Z,100900.58
2019-03-03T08:08:38.117Z,100910.95
2019-03-03T08:11:08.652Z,100910.02
2019-03-03T08:13:39.828Z,100915.77
2019-03-03T08:16:10.983Z,100911.48
2019-03-03T08:18:41.651Z,100905.80
2019-03-03T08:21:12.486Z,100907.42
2019-03-03T08:23:42.797Z,100908.56
2019-03-03T08:26:13.367Z,100899.91
2019-03-03T08:28:43.835Z,100896.42
2019-03-03T08:31:14.413Z,100907.77
2019-03-03T08:33:45.035Z,100907.06
2019-03-03T08:36:15.536Z,100907.98
2019-03-03T08:38:46.120Z,100907.62
2019-03-03T08:41:16.976Z,100915.80
2019-03-03T08:43:54.988Z,100915.72
2019-03-03T08:46:44.784Z,100920.78
2019-03-03T08:49:41.220Z,100904.94
2019-03-03T08:52:36.027Z,100904.94
2019-03-03T08:55:16.374Z,100924.19
2019-03-03T08:57:52.234Z,100927.56
2019-03-03T09:00:45.090Z,100912.41
2019-03-03T09:03:41.314Z,100912.41
2019-03-03T09:06:27.479Z,100926.00
2019-03-03T09:09:26.323Z,100929.56
2019-03-03T09:12:18.933Z,100929.56
2019-03-03T09:15:24.037Z,100918.98
2019-03-03T09:18:04.578Z,100922.88
2019-03-03T09:20:57.636Z,100931.39
2019-03-03T09:23:41.604Z,100936.59
2019-03-03T09:26:34.232Z,100925.52
2019-03-03T09:29:25.639Z,100925.41
2019-03-03T09:32:16.475Z,100932.53
2019-03-03T09:35:15.357Z,100932.53
2019-03-03T09:38:08.217Z,100925.57
2019-03-03T09:40:49.938Z,100924.42
2019-03-03T09:43:51.602Z,100918.53
2019-03-03T09:46:41.372Z,100933.08
2019-03-03T09:49:23.737Z,100934.58
2019-03-03T09:52:30.434Z,100939.08
2019-03-03T09:55:23.706Z,100936.48
2019-03-03T09:58:06.232Z,100934.52
2019-03-03T10:00:55.680Z,100934.77
2019-03-03T10:03:45.265Z,100931.09
2019-03-03T10:06:46.900Z,100938.67
2019-03-03T10:09:35.576Z,100933.77
2019-03-03T10:12:20.837Z,100935.83
2019-03-03T10:15:22.431Z,100935.83
2019-03-03T10:17:59.599Z,100927.86
2019-03-03T10:20:54.705Z,100923.77
2019-03-03T10:23:38.196Z,100923.77
2019-03-03T10:26:42.885Z,100925.70
2019-03-03T10:29:25.763Z,100930.12
2019-03-03T10:32:13.766Z,100924.36
2019-03-03T10:35:03.006Z,100918.55
2019-03-03T10:37:58.232Z,100916.19
2019-03-03T10:40:59.778Z,100915.09
2019-03-03T10:43:51.623Z,100906.38
2019-03-03T10:46:53.570Z,100898.99
2019-03-03T10:49:43.178Z,100893.88
2019-03-03T10:52:47.881Z,100890.07
2019-03-03T10:55:42.729Z,100882.00
2019-03-03T10:58:19.551Z,100885.98
2019-03-03T11:01:05.362Z,100880.16
2019-03-03T11:03:51.535Z,100876.84
2019-03-03T11:06:59.042Z,100882.83
2019-03-03T11:09:52.501Z,100875.19
2019-03-03T11:12:41.769Z,100878.88
2019-03-03T11:15:31.241Z,100875.98
2019-03-03T11:18:10.720Z,100880.16
2019-03-03T11:21:09.688Z,100880.30
2019-03-03T11:24:01.704Z,100879.48
2019-03-03T11:27:00.510Z,100880.70
2019-03-03T11:29:42.226Z,100876.20
2019-03-03T11:32:35.180Z,100871.13
2019-03-03T11:35:28.007Z,100871.40
2019-03-03T11:38:20.558Z,100868.96
2019-03-03T11:41:05.215Z,100865.45
2019-03-03T11:43:51.256Z,100866.91
2019-03-03T11:46:46.420Z,100856.72
2019-03-03T11:49:48.098Z,100864.48
2019-03-03T11:52:36.339Z,100860.18
2019-03-03T11:55:37.922Z,100862.95
2019-03-03T11:58:20.943Z,100862.12
2019-03-03T12:01:02.314Z,100858.45
2019-03-03T12:03:44.405Z,100848.39
2019-03-03T12:06:24.724Z,100839.97
2019-03-03T12:09:12.814Z,100849.73
2019-03-03T12:12:14.460Z,100854.83
2019-03-03T12:15:09.574Z,100854.83
2019-03-03T12:17:51.676Z,100851.71
2019-03-03T12:20:40.922Z,100847.31
2019-03-03T12:23:30.320Z,100850.03
2019-03-03T12:26:29.435Z,100850.01
2019-03-03T12:29:17.661Z,100851.40
2019-03-03T12:31:59.361Z,100857.91
2019-03-03T12:34:50.870Z,100843.61
2019-03-03T12:37:49.262Z,100839.55
2019-03-03T12:40:57.071Z,100831.82
2019-03-03T12:43:36.827Z,100831.91
2019-03-03T12:46:31.909Z,100828.25
2019-03-03T12:49:14.629Z,100828.25
2019-03-03T12:52:01.657Z,100828.42
2019-03-03T12:54:54.091Z,100829.81
2019-03-03T12:57:41.436Z,100829.81
2019-03-03T13:00:29.885Z,100834.03
2019-03-03T13:03:29.664Z,100823.25
2019-03-03T13:06:25.531Z,100831.97
2019-03-03T13:09:15.099Z,100817.94
2019-03-03T13:12:13.581Z,100817.94
2019-03-03T13:14:53.734Z,100817.41
2019-03-03T13:17:48.529Z,100823.00
2019-03-03T13:20:36.380Z,100823.00
2019-03-03T13:23:16.320Z,100823.72
2019-03-03T13:26:12.551Z,100823.44
2019-03-03T13:29:01.920Z,100813.04
2019-03-03T13:31:54.999Z,100818.55
2019-03-03T13:34:44.670Z,100819.41
2019-03-03T13:37:33.314Z,100813.58
2019-03-03T13:40:16.957Z,100812.89
2019-03-03T13:42:59.982Z,100810.91
2019-03-03T13:45:39.535Z,100812.90
2019-03-03T13:48:10.486Z,100807.67
2019-03-03T13:50:41.128Z,100813.51
2019-03-03T13:53:11.824Z,100810.80
2019-03-03T13:55:42.360Z,100813.94
2019-03-03T13:58:12.897Z,100812.27
2019-03-03T14:00:43.246Z,100818.00
2019-03-03T14:03:14.316Z,100814.03
2019-03-03T14:05:46.615Z,100811.50
2019-03-03T14:08:17.072Z,100811.24
2019-03-03T14:10:47.794Z,100815.66
2019-03-03T14:13:18.356Z,100813.77
2019-03-03T14:15:48.944Z,100807.98
2019-03-03T14:18:19.378Z,100813.77
2019-03-03T14:20:50.132Z,100808.50
2019-03-03T14:23:20.443Z,100801.11
2019-03-03T14:25:50.993Z,100806.59
2019-03-03T14:28:21.834Z,100805.56
2019-03-03T14:30:52.420Z,100801.47
2019-03-03T14:33:23.239Z,100801.08
2019-03-03T14:35:54.057Z,100802.83
2019-03-03T14:38:24.478Z,100801.20
2019-03-03T14:40:55.336Z,100806.13
2019-03-03T14:43:28.008Z,100800.64
2019-03-03T14:45:58.593Z,100803.17
2019-03-03T14:48:28.906Z,100798.88
2019-03-03T14:50:59.520Z,100800.15
2019-03-03T14:53:30.321Z,100800.59
2019-03-03T14:56:00.932Z,100797.30
2019-03-03T14:58:31.240Z,100803.27
2019-03-03T15:01:02.154Z,100797.18
2019-03-03T15:03:32.569Z,100804.55
2019-03-03T15:06:03.365Z,100804.09
2019-03-03T15:08:33.868Z,100807.34
2019-03-03T15:11:05.717Z,100798.34
2019-03-03T15:13:36.608Z,100801.75
2019-03-03T15:16:07.800Z,100802.08
2019-03-03T15:18:39.032Z,100800.05
2019-03-03T15:21:10.154Z,100804.20
2019-03-03T15:23:42.411Z,100808.97
2019-03-03T15:26:12.936Z,100811.13
2019-03-03T15:28:43.175Z,100810.47
2019-03-03T15:31:15.092Z,100803.77
2019-03-03T15:33:45.343Z,100805.21
2019-03-03T15:36:15.880Z,100805.35
2019-03-03T15:38:46.563Z,100802.97
2019-03-03T15:41:16.819Z,100800.95
2019-03-03T15:43:47.147Z,100801.78
2019-03-03T15:46:17.559Z,100805.02
2019-03-03T15:48:48.002Z,100802.13
2019-03-03T15:51:19.138Z,100804.22
2019-03-03T15:53:49.867Z,100804.52
2019-03-03T15:56:20.309Z,100809.13
2019-03-03T15:58:55.579Z,100803.36
2019-03-03T16:01:23.336Z,100802.34
2019-03-03T16:03:53.735Z,100808.31
2019-03-03T16:06:24.120Z,100802.98
2019-03-03T16:08:54.623Z,100808.75
2019-03-03T16:11:25.259Z,100807.91
2019-03-03T16:13:55.462Z,100809.61
2019-03-03T16:16:25.992Z,100803.70
2019-03-03T16:18:56.347Z,100809.47
2019-03-03T16:21:26.836Z,100805.92
2019-03-03T16:23:57.321Z,100809.20
2019-03-03T16:26:27.923Z,100807.59
2019-03-03T16:28:58.380Z,100805.92
2019-03-03T16:31:29.346Z,100805.58
2019-03-03T16:34:00.173Z,100805.33
2019-03-03T16:36:30.526Z,100807.66
2019-03-03T16:39:01.455Z,100808.74
2019-03-03T16:41:31.873Z,100813.85
2019-03-03T16:44:02.923Z,100819.05
2019-03-03T16:46:37.467Z,100817.75
2019-03-03T16:49:07.800Z,100814.62
2019-03-03T16:51:38.226Z,100816.11
2019-03-03T16:54:08.846Z,100817.41
2019-03-03T16:56:40.356Z,100822.00
2019-03-03T16:59:11.328Z,100825.50
2019-03-03T17:01:42.271Z,100814.73
2019-03-03T17:04:12.734Z,100822.70
2019-03-03T17:06:43.236Z,100819.00
2019-03-03T17:09:14.994Z,100829.81
2019-03-03T17:11:46.696Z,100829.02
2019-03-03T17:14:17.120Z,100832.24
2019-03-03T17:16:48.471Z,100837.01
2019-03-03T17:19:18.769Z,100831.66
2019-03-03T17:21:50.360Z,100833.75
2019-03-03T17:24:20.906Z,100834.55
2019-03-03T17:26:54.667Z,100835.90
2019-03-03T17:29:25.356Z,100828.76
2019-03-03T17:31:57.030Z,100836.13
2019-03-03T17:34:27.819Z,100831.39
2019-03-03T17:36:58.401Z,100831.64
2019-03-03T17:39:29.811Z,100817.55
2019-03-03T17:42:00.314Z,100835.14
2019-03-03T17:44:31.208Z,100830.37
2019-03-03T17:47:02.695Z,100833.65
2019-03-03T17:49:35.729Z,100830.30
2019-03-03T17:52:06.659Z,100824.70
2019-03-03T17:54:36.879Z,100820.56
2019-03-03T17:57:07.729Z,100828.66
2019-03-03T17:59:38.428Z,100831.41
2019-03-03T18:02:08.972Z,100832.64
2019-03-03T18:04:40.067Z,100832.59
2019-03-03T18:07:10.634Z,100837.23
2019-03-03T18:09:41.058Z,100838.06
2019-03-03T18:12:11.969Z,100836.65
2019-03-03T18:14:42.328Z,100835.11
2019-03-03T18:17:12.649Z,100838.75
2019-03-03T18:19:43.473Z,100841.63
2019-03-03T18:22:13.949Z,100839.06
2019-03-03T18:24:44.346Z,100837.14
2019-03-03T18:27:15.009Z,100841.47
2019-03-03T18:29:46.649Z,100834.16
2019-03-03T18:32:17.063Z,100833.00
2019-03-03T18:34:47.590Z,100832.74
2019-03-03T18:37:18.006Z,100832.23
2019-03-03T18:39:48.475Z,100831.70
2019-03-03T18:42:19.610Z,100828.54
2019-03-03T18:44:50.005Z,100829.27
2019-03-03T18:47:20.443Z,100827.71
2019-03-03T18:49:51.050Z,100821.09
2019-03-03T18:52:21.419Z,100819.30
2019-03-03T18:54:51.726Z,100822.10
2019-03-03T18:57:22.384Z,100818.36
2019-03-03T18:59:52.936Z,100813.21
2019-03-03T19:02:24.374Z,100817.57
2019-03-03T19:04:55.436Z,100817.75
2019-03-03T19:07:26.545Z,100822.55
2019-03-03T19:09:58.641Z,100813.23
2019-03-03T19:12:29.594Z,100809.83
2019-03-03T19:15:00.389Z,100809.57
2019-03-03T19:17:31.130Z,100812.95
2019-03-03T19:20:02.043Z,100809.77
2019-03-03T19:22:34.018Z,100809.70
2019-03-03T19:25:07.229Z,100811.34
2019-03-03T19:27:40.906Z,100817.98
2019-03-03T19:30:17.381Z,100822.91
2019-03-03T19:32:50.538Z,100823.42
2019-03-03T19:35:21.210Z,100820.51
2019-03-03T19:37:51.790Z,100814.81
2019-03-03T19:40:22.461Z,100813.45
2019-03-03T19:42:53.344Z,100811.21
2019-03-03T19:45:26.971Z,100801.98
2019-03-03T19:47:58.669Z,100804.62
2019-03-03T19:50:30.718Z,100805.64
2019-03-03T19:53:01.111Z,100805.26
2019-03-03T19:55:32.858Z,100808.73
2019-03-03T19:58:03.413Z,100807.16
2019-03-03T20:00:36.693Z,100800.56
2019-03-03T20:03:07.504Z,100797.34
2019-03-03T20:05:38.115Z,100799.97
2019-03-03T20:08:10.081Z,100795.01
2019-03-03T20:10:41.278Z,100793.21
2019-03-03T20:13:11.818Z,100795.92
2019-03-03T20:15:43.697Z,100787.19
2019-03-03T20:18:14.593Z,100752.95
2019-03-03T20:20:44.871Z,100786.93
2019-03-03T20:23:15.259Z,100785.34
2019-03-03T20:25:46.976Z,100779.49
2019-03-03T20:28:17.200Z,100777.88
2019-03-03T20:30:51.067Z,100777.02
2019-03-03T20:33:22.049Z,100778.61
2019-03-03T20:35:52.292Z,100780.95
2019-03-03T20:38:23.125Z,100780.05
2019-03-03T20:40:53.585Z,100771.58
2019-03-03T20:43:24.074Z,100770.34
2019-03-03T20:45:55.290Z,100769.67
2019-03-03T20:48:25.837Z,100761.97
2019-03-03T20:50:57.658Z,100763.52
2019-03-03T20:53:28.541Z,100768.42
2019-03-03T20:55:59.133Z,100765.53
2019-03-03T20:58:29.598Z,100766.94
2019-03-03T21:01:00.184Z,100759.05
2019-03-03T21:03:31.406Z,100757.44
2019-03-03T21:06:01.921Z,100756.69
2019-03-03T21:08:33.372Z,100760.05
2019-03-03T21:11:05.425Z,100756.63
2019-03-03T21:13:35.853Z,100757.44
2019-03-03T21:16:06.910Z,100753.88
2019-03-03T21:18:37.513Z,100742.59
2019-03-03T21:21:07.760Z,100741.85
2019-03-03T21:23:38.668Z,100743.69
2019-03-03T21:26:09.112Z,100737.40
2019-03-03T21:28:39.535Z,100740.06
2019-03-03T21:31:11.284Z,100742.70
2019-03-03T21:33:41.759Z,100743.50
2019-03-03T21:36:12.594Z,100746.94
2019-03-03T21:38:43.439Z,100746.14
2019-03-03T21:41:13.866Z,100738.50
2019-03-03T21:43:44.379Z,100743.91
2019-03-03T21:46:15.015Z,100736.95
2019-03-03T21:48:45.429Z,100733.14
2019-03-03T21:51:16.108Z,100727.97
2019-03-03T21:53:46.780Z,100721.52
2019-03-03T21:56:17.403Z,100714.56
2019-03-03T21:58:48.369Z,100718.93
2019-03-03T22:01:19.537Z,100717.00
2019-03-03T22:03:49.833Z,100718.73
2019-03-03T22:06:20.193Z,100719.11
2019-03-03T22:08:52.682Z,100721.44
2019-03-03T22:11:23.392Z,100719.02
2019-03-03T22:13:54.117Z,100721.17
2019-03-03T22:16:26.074Z,100719.47
2019-03-03T22:18:57.737Z,100711.23
2019-03-03T22:21:29.799Z,100711.83
2019-03-03T22:24:00.893Z,100713.11
2019-03-03T22:26:32.892Z,100712.78
2019-03-03T22:29:03.950Z,100713.22
2019-03-03T22:31:34.710Z,100712.52
2019-03-03T22:34:05.519Z,100712.73
2019-03-03T22:36:36.047Z,100713.16
2019-03-03T22:39:09.941Z,100708.81
2019-03-03T22:41:40.990Z,100712.44
2019-03-03T22:44:11.676Z,100714.27
2019-03-03T22:46:43.569Z,100713.24
2019-03-03T22:49:14.437Z,100710.15
2019-03-03T22:51:45.084Z,100717.77
2019-03-03T22:54:15.781Z,100714.55
2019-03-03T22:56:48.107Z,100714.62
2019-03-03T22:59:19.890Z,100712.09
2019-03-03T23:01:50.879Z,100705.42
2019-03-03T23:05:21.249Z,100699.77
2019-03-03T23:08:08.781Z,100702.20
2019-03-03T23:10:47.837Z,100697.24
2019-03-03T23:14:03.993Z,100698.81
2019-03-03T23:17:15.831Z,100700.80
2019-03-03T23:20:11.220Z,100698.66
2019-03-03T23:23:37.551Z,100699.56
2019-03-03T23:26:16.379Z,100705.53
2019-03-03T23:28:40.737Z,100703.92
2019-03-03T23:31:11.598Z,100699.90
2019-03-03T23:33:42.280Z,100700.31
2019-03-03T23:36:13.687Z,100694.14
2019-03-03T23:38:44.564Z,100698.55
2019-03-03T23:41:15.023Z,100702.69
2019-03-03T23:43:47.295Z,100699.62
2019-03-03T23:46:18.175Z,100691.08
2019-03-03T23:48:48.906Z,100689.68
2019-03-03T23:51:19.573Z,100689.94
2019-03-03T23:53:50.290Z,100682.09
2019-03-03T23:56:20.908Z,100684.72
2019-03-03T23:58:51.682Z,100684.28
